createdAt,value
2016-10-06T00:00:50.325Z,1022.44
2016-10-06T00:05:46.750Z,1022.45
2016-10-06T00:10:43.923Z,1022.42
2016-10-06T00:15:40.253Z,1022.41
2016-10-06T00:20:37.276Z,1022.40
2016-10-06T00:25:34.011Z,1022.51
2016-10-06T00:30:30.428Z,1022.51
2016-10-06T00:35:26.786Z,1022.40
2016-10-06T00:40:23.319Z,1022.33
2016-10-06T00:45:19.739Z,1022.37
2016-10-06T00:50:16.991Z,1022.37
2016-10-06T00:55:13.243Z,1022.31
2016-10-06T01:00:09.756Z,1022.19
2016-10-06T01:05:06.438Z,1021.99
2016-10-06T01:10:03.028Z,1021.89
2016-10-06T01:14:59.457Z,1021.90
2016-10-06T01:19:55.441Z,1021.89
2016-10-06T01:24:54.294Z,1021.65
2016-10-06T01:29:49.648Z,1021.80
2016-10-06T01:34:46.069Z,1021.62
2016-10-06T01:39:42.511Z,1021.70
2016-10-06T01:44:39.123Z,1021.81
2016-10-06T01:49:35.477Z,1021.68
2016-10-06T01:54:31.899Z,1021.74
2016-10-06T01:59:28.952Z,1021.68
2016-10-06T02:04:25.489Z,1021.56
2016-10-06T02:09:22.245Z,1021.39
2016-10-06T02:14:18.784Z,1021.38
2016-10-06T02:19:15.252Z,1021.18
2016-10-06T02:24:11.744Z,1021.04
2016-10-06T02:29:08.600Z,1020.97
2016-10-06T02:34:05.051Z,1020.85
2016-10-06T02:39:02.494Z,1020.78
2016-10-06T02:43:59.267Z,1020.74
2016-10-06T02:48:55.868Z,1020.77
2016-10-06T02:53:52.408Z,1020.68
2016-10-06T02:58:48.760Z,1020.61
2016-10-06T03:03:46.793Z,1020.46
2016-10-06T03:13:42.802Z,1020.39
2016-10-06T03:18:39.244Z,1020.26
2016-10-06T03:23:35.703Z,1020.31
2016-10-06T03:28:33.250Z,1020.36
2016-10-06T03:33:29.509Z,1020.31
2016-10-06T03:38:26.340Z,1020.32
2016-10-06T03:43:25.338Z,1020.39
2016-10-06T03:48:21.207Z,1020.13
2016-10-06T03:53:17.805Z,1020.05
2016-10-06T03:58:14.383Z,1020.10
2016-10-06T04:03:10.890Z,1020.05
2016-10-06T04:08:07.180Z,1019.99
2016-10-06T04:13:03.612Z,1019.87
2016-10-06T04:18:00.763Z,1019.76
2016-10-06T04:22:57.420Z,1019.91
2016-10-06T04:27:53.887Z,1019.87
2016-10-06T04:32:50.387Z,1019.95
2016-10-06T04:37:46.858Z,1019.80
2016-10-06T04:42:43.503Z,1019.76
2016-10-06T04:47:41.022Z,1019.77
2016-10-06T04:52:37.271Z,1019.69
2016-10-06T04:57:33.444Z,1019.62
2016-10-06T05:02:29.902Z,1019.60
2016-10-06T05:07:26.307Z,1019.45
2016-10-06T05:12:22.570Z,1019.33
2016-10-06T05:17:19.595Z,1019.31
2016-10-06T05:22:16.464Z,1019.12
2016-10-06T05:27:13.605Z,1019.24
2016-10-06T05:32:10.899Z,1019.32
2016-10-06T05:37:07.352Z,1019.30
2016-10-06T05:42:04.714Z,1019.24
2016-10-06T05:47:01.053Z,1019.08
2016-10-06T05:51:57.567Z,1019.21
2016-10-06T05:56:53.890Z,1019.21
2016-10-06T06:01:50.722Z,1019.20
2016-10-06T06:06:47.319Z,1019.14
2016-10-06T06:11:43.793Z,1018.94
2016-10-06T06:16:40.348Z,1019.04
2016-10-06T06:21:36.995Z,1019.04
2016-10-06T06:26:33.315Z,1019.06
2016-10-06T06:31:29.969Z,1019.07
2016-10-06T06:36:26.611Z,1018.95
2016-10-06T06:41:23.149Z,1018.79
2016-10-06T06:46:19.610Z,1018.81
2016-10-06T06:51:16.169Z,1018.81
2016-10-06T06:56:12.725Z,1018.93
2016-10-06T07:01:09.437Z,1018.86
2016-10-06T07:06:06.974Z,1018.86
2016-10-06T07:11:04.754Z,1018.86
2016-10-06T07:16:00.977Z,1018.95
2016-10-06T07:20:58.020Z,1018.98
2016-10-06T07:25:53.983Z,1019.04
2016-10-06T07:30:51.019Z,1018.94
2016-10-06T07:35:47.753Z,1019.02
2016-10-06T07:40:43.823Z,1019.10
2016-10-06T07:45:41.239Z,1019.03
2016-10-06T07:50:37.761Z,1019.01
2016-10-06T07:55:34.294Z,1018.95
2016-10-06T08:00:30.707Z,1018.99
2016-10-06T08:05:27.570Z,1019.03
2016-10-06T08:10:23.955Z,1019.01
2016-10-06T08:15:20.419Z,1019.06
2016-10-06T08:20:16.981Z,1019.02
2016-10-06T08:25:13.680Z,1018.96
2016-10-06T08:30:10.324Z,1018.81
2016-10-06T08:35:06.823Z,1018.84
2016-10-06T08:40:03.413Z,1018.86
2016-10-06T08:44:59.964Z,1018.83
2016-10-06T08:49:56.237Z,1018.81
2016-10-06T08:54:52.973Z,1018.80
2016-10-06T08:59:49.906Z,1018.78
2016-10-06T09:04:45.980Z,1018.90
2016-10-06T09:09:42.420Z,1018.89
2016-10-06T09:14:38.803Z,1018.85
2016-10-06T09:19:35.708Z,1018.83
2016-10-06T09:24:32.779Z,1018.78
2016-10-06T09:29:30.342Z,1018.84
2016-10-06T09:34:26.547Z,1018.77
2016-10-06T09:39:23.238Z,1018.72
2016-10-06T09:44:20.585Z,1018.82
2016-10-06T09:49:16.753Z,1018.70
2016-10-06T09:54:13.552Z,1018.71
2016-10-06T09:59:10.112Z,1018.74
2016-10-06T10:04:06.506Z,1018.62
2016-10-06T10:09:02.893Z,1018.67
2016-10-06T10:13:59.335Z,1018.63
2016-10-06T10:18:56.038Z,1018.49
2016-10-06T10:23:52.126Z,1018.52
2016-10-06T10:28:48.977Z,1018.48
2016-10-06T10:33:45.510Z,1018.49
2016-10-06T10:38:43.291Z,1018.42
2016-10-06T10:43:39.622Z,1018.45
2016-10-06T10:48:36.193Z,1018.43
2016-10-06T10:53:32.670Z,1018.45
2016-10-06T10:58:28.729Z,1018.38
2016-10-06T11:03:25.671Z,1018.30
2016-10-06T11:08:22.475Z,1018.14
2016-10-06T11:13:19.259Z,1018.19
2016-10-06T11:18:15.835Z,1018.21
2016-10-06T11:23:12.309Z,1018.18
2016-10-06T11:28:08.836Z,1018.05
2016-10-06T11:33:05.386Z,1018.08
2016-10-06T11:38:02.034Z,1018.09
2016-10-06T11:42:58.683Z,1017.95
2016-10-06T11:47:57.416Z,1017.94
2016-10-06T11:52:53.431Z,1018.00
2016-10-06T11:57:50.200Z,1017.97
2016-10-06T12:02:46.890Z,1017.96
2016-10-06T12:07:43.244Z,1017.86
2016-10-06T12:12:39.789Z,1017.78
2016-10-06T12:17:36.375Z,1017.77
2016-10-06T12:22:32.650Z,1017.70
2016-10-06T12:27:29.326Z,1017.71
2016-10-06T12:32:25.557Z,1017.59
2016-10-06T12:37:22.278Z,1017.64
2016-10-06T12:42:18.974Z,1017.46
2016-10-06T12:47:15.356Z,1017.50
2016-10-06T12:52:12.086Z,1017.46
2016-10-06T12:57:08.628Z,1017.40
2016-10-06T13:02:05.248Z,1017.29
2016-10-06T13:07:02.206Z,1017.34
2016-10-06T13:11:58.670Z,1017.23
2016-10-06T13:16:54.992Z,1017.26
2016-10-06T13:21:51.457Z,1017.12
2016-10-06T13:26:47.703Z,1017.09
2016-10-06T13:31:46.617Z,1017.03
2016-10-06T13:36:42.734Z,1016.98
2016-10-06T13:41:39.340Z,1016.93
2016-10-06T13:46:37.074Z,1016.82
2016-10-06T13:51:33.192Z,1016.85
2016-10-06T13:56:29.844Z,1016.75
2016-10-06T14:01:26.374Z,1016.89
2016-10-06T14:06:23.029Z,1016.84
2016-10-06T14:11:19.690Z,1016.89
2016-10-06T14:16:16.210Z,1016.74
2016-10-06T14:21:12.935Z,1016.73
2016-10-06T14:26:09.534Z,1016.75
2016-10-06T14:31:06.305Z,1016.74
2016-10-06T14:36:02.922Z,1016.75
2016-10-06T14:40:59.633Z,1016.74
2016-10-06T14:45:56.410Z,1016.72
2016-10-06T14:50:52.871Z,1016.75
2016-10-06T14:55:49.546Z,1016.61
2016-10-06T15:00:46.468Z,1016.70
2016-10-06T15:05:43.387Z,1016.74
2016-10-06T15:10:39.798Z,1016.70
2016-10-06T15:15:36.821Z,1016.67
2016-10-06T15:20:33.066Z,1016.59
2016-10-06T15:25:30.802Z,1016.67
2016-10-06T15:30:26.950Z,1016.73
2016-10-06T15:35:23.235Z,1016.86
2016-10-06T15:40:21.654Z,1016.70
2016-10-06T15:45:18.028Z,1016.80
2016-10-06T15:50:14.706Z,1016.77
2016-10-06T15:55:10.852Z,1016.75
2016-10-06T16:00:08.408Z,1016.73
2016-10-06T16:05:04.553Z,1016.76
2016-10-06T16:10:01.407Z,1016.73
2016-10-06T16:14:57.854Z,1016.69
2016-10-06T16:19:54.621Z,1016.53
2016-10-06T16:24:51.296Z,1016.65
2016-10-06T16:29:47.840Z,1016.64
2016-10-06T16:34:44.786Z,1016.65
2016-10-06T16:39:41.323Z,1016.66
2016-10-06T16:44:37.400Z,1016.64
2016-10-06T16:49:34.466Z,1016.80
2016-10-06T16:54:30.792Z,1016.80
2016-10-06T16:59:27.366Z,1016.77
2016-10-06T17:04:23.807Z,1016.78
2016-10-06T17:09:20.118Z,1016.70
2016-10-06T17:14:17.199Z,1016.68
2016-10-06T17:19:14.333Z,1016.69
2016-10-06T17:24:10.989Z,1016.58
2016-10-06T17:29:07.320Z,1016.55
2016-10-06T17:34:03.635Z,1016.61
2016-10-06T17:39:00.092Z,1016.62
2016-10-06T17:43:58.363Z,1016.63
2016-10-06T17:48:54.518Z,1016.65
2016-10-06T17:53:51.151Z,1016.64
2016-10-06T17:58:48.076Z,1016.70
2016-10-06T18:03:44.737Z,1016.64
2016-10-06T18:08:41.003Z,1016.74
2016-10-06T18:13:37.408Z,1016.71
2016-10-06T18:18:33.920Z,1016.64
2016-10-06T18:23:33.203Z,1016.70
2016-10-06T18:28:28.790Z,1016.68
2016-10-06T18:33:25.740Z,1016.65
2016-10-06T18:38:21.779Z,1016.61
2016-10-06T18:43:18.841Z,1016.59
2016-10-06T18:48:15.034Z,1016.73
2016-10-06T18:53:12.362Z,1016.56
2016-10-06T18:58:09.371Z,1016.55
2016-10-06T19:03:06.129Z,1016.70
2016-10-06T19:08:02.462Z,1016.69
2016-10-06T19:12:59.079Z,1016.78
2016-10-06T19:17:55.450Z,1016.72
2016-10-06T19:22:51.925Z,1016.73
2016-10-06T19:27:48.445Z,1016.74
2016-10-06T19:32:45.197Z,1016.66
2016-10-06T19:37:41.497Z,1016.57
2016-10-06T19:42:38.181Z,1016.62
2016-10-06T19:47:34.772Z,1016.51
2016-10-06T19:52:32.309Z,1016.54
2016-10-06T19:57:28.691Z,1016.43
2016-10-06T20:02:25.482Z,1016.50
2016-10-06T20:07:22.333Z,1016.58
2016-10-06T20:12:18.573Z,1016.56
2016-10-06T20:17:15.062Z,1016.41
2016-10-06T20:22:11.587Z,1016.43
2016-10-06T20:27:07.936Z,1016.46
2016-10-06T20:32:04.450Z,1016.39
2016-10-06T20:37:01.697Z,1016.43
2016-10-06T20:41:58.317Z,1016.35
2016-10-06T20:46:54.532Z,1016.35
2016-10-06T20:51:51.565Z,1016.37
2016-10-06T20:56:48.366Z,1016.37
2016-10-06T21:01:47.418Z,1016.32
2016-10-06T21:06:43.354Z,1016.26
2016-10-06T21:11:40.474Z,1016.25
2016-10-06T21:16:36.882Z,1016.14
2016-10-06T21:21:33.633Z,1016.24
2016-10-06T21:26:30.141Z,1016.22
2016-10-06T21:31:26.711Z,1016.21
2016-10-06T21:36:23.208Z,1016.24
2016-10-06T21:41:19.843Z,1016.13
2016-10-06T21:46:16.247Z,1016.21
2016-10-06T21:51:12.801Z,1016.19
2016-10-06T21:56:10.311Z,1016.19
2016-10-06T22:01:07.989Z,1016.15
2016-10-06T22:06:04.442Z,1016.18
2016-10-06T22:11:01.493Z,1016.16
2016-10-06T22:15:58.805Z,1016.05
2016-10-06T22:20:55.397Z,1016.12
2016-10-06T22:25:51.842Z,1016.11
2016-10-06T22:30:48.387Z,1016.09
2016-10-06T22:35:46.080Z,1016.07
2016-10-06T22:40:42.283Z,1015.99
2016-10-06T22:45:38.877Z,1015.96
2016-10-06T22:50:35.455Z,1015.94
2016-10-06T22:55:32.061Z,1015.84
2016-10-06T23:00:28.774Z,1015.80
2016-10-06T23:05:25.243Z,1015.81
2016-10-06T23:10:21.745Z,1015.74
2016-10-06T23:15:18.333Z,1015.71
2016-10-06T23:20:14.855Z,1015.79
2016-10-06T23:25:11.533Z,1015.66
2016-10-06T23:30:09.670Z,1015.64
2016-10-06T23:35:06.365Z,1015.72
2016-10-06T23:40:03.617Z,1015.60
2016-10-06T23:45:01.386Z,1015.71
2016-10-06T23:49:57.715Z,1015.68
2016-10-06T23:54:54.431Z,1015.63
2016-10-06T23:59:50.902Z,1015.56
